createdAt,value
2019-02-16T00:01:13.669Z,8.20
2019-02-16T00:03:43.945Z,7.63
2019-02-16T00:06:14.252Z,8.87
2019-02-16T00:08:44.532Z,7.93
2019-02-16T00:11:14.841Z,8.63
2019-02-16T00:13:45.125Z,8.07
2019-02-16T00:16:15.451Z,8.20
2019-02-16T00:18:45.754Z,7.97
2019-02-16T00:21:16.082Z,7.10
2019-02-16T00:23:46.415Z,8.67
2019-02-16T00:26:16.705Z,7.60
2019-02-16T00:28:47.031Z,8.70
2019-02-16T00:31:18.472Z,8.60
2019-02-16T00:33:48.731Z,9.97
2019-02-16T00:36:19.064Z,8.63
2019-02-16T00:38:49.346Z,9.27
2019-02-16T00:41:19.617Z,8.10
2019-02-16T00:43:49.869Z,8.17
2019-02-16T00:46:20.173Z,9.13
2019-02-16T00:48:50.469Z,8.03
2019-02-16T00:51:20.684Z,8.33
2019-02-16T00:53:53.223Z,7.60
2019-02-16T00:56:23.452Z,7.77
2019-02-16T00:58:53.717Z,7.97
2019-02-16T01:01:24.056Z,7.33
2019-02-16T01:03:54.327Z,8.07
2019-02-16T01:06:24.618Z,8.37
2019-02-16T01:08:54.887Z,8.63
2019-02-16T01:11:25.241Z,8.77
2019-02-16T01:13:55.457Z,8.80
2019-02-16T01:16:25.704Z,8.47
2019-02-16T01:18:55.941Z,7.97
2019-02-16T01:21:26.236Z,8.57
2019-02-16T01:23:56.582Z,9.10
2019-02-16T01:26:26.851Z,8.57
2019-02-16T01:28:57.133Z,7.70
2019-02-16T01:31:27.375Z,7.77
2019-02-16T01:34:00.431Z,7.70
2019-02-16T01:36:30.729Z,8.20
2019-02-16T01:39:00.929Z,8.67
2019-02-16T01:41:31.190Z,8.03
2019-02-16T01:44:01.462Z,7.23
2019-02-16T01:46:31.714Z,7.93
2019-02-16T01:49:02.041Z,8.07
2019-02-16T01:51:32.383Z,8.37
2019-02-16T01:54:02.660Z,8.33
2019-02-16T01:56:32.940Z,8.33
2019-02-16T01:59:03.233Z,9.13
2019-02-16T02:01:33.497Z,8.87
2019-02-16T02:04:03.773Z,9.00
2019-02-16T02:06:33.952Z,9.13
2019-02-16T02:09:05.243Z,9.47
2019-02-16T02:11:35.532Z,9.43
2019-02-16T02:14:05.783Z,9.47
2019-02-16T02:16:36.055Z,9.90
2019-02-16T02:19:06.390Z,10.23
2019-02-16T02:21:41.092Z,10.67
2019-02-16T02:24:08.520Z,9.70
2019-02-16T02:26:38.724Z,9.63
2019-02-16T02:29:08.935Z,8.20
2019-02-16T02:31:39.213Z,9.33
2019-02-16T02:34:09.491Z,8.67
2019-02-16T02:36:39.790Z,8.30
2019-02-16T02:39:10.079Z,8.97
2019-02-16T02:41:40.409Z,8.93
2019-02-16T02:44:10.658Z,8.53
2019-02-16T02:46:40.941Z,8.73
2019-02-16T02:49:11.289Z,8.57
2019-02-16T02:51:51.513Z,8.70
2019-02-16T02:54:13.549Z,8.57
2019-02-16T02:56:43.766Z,8.33
2019-02-16T02:59:13.976Z,7.97
2019-02-16T03:01:44.306Z,9.27
2019-02-16T03:04:14.521Z,8.93
2019-02-16T03:06:44.754Z,8.93
2019-02-16T03:09:14.939Z,8.83
2019-02-16T03:11:45.143Z,7.57
2019-02-16T03:14:15.428Z,8.30
2019-02-16T03:16:45.702Z,9.17
2019-02-16T03:19:15.877Z,8.57
2019-02-16T03:21:46.194Z,8.10
2019-02-16T03:24:16.469Z,7.17
2019-02-16T03:27:03.156Z,6.77
2019-02-16T03:29:54.529Z,7.40
2019-02-16T03:33:00.631Z,8.60
2019-02-16T03:36:07.168Z,7.97
2019-02-16T03:39:00.660Z,7.13
2019-02-16T03:41:30.938Z,6.70
2019-02-16T03:44:01.120Z,6.00
2019-02-16T03:46:31.391Z,6.20
2019-02-16T03:49:03.260Z,6.70
2019-02-16T03:51:33.536Z,8.30
2019-02-16T03:54:03.816Z,8.40
2019-02-16T03:56:34.037Z,8.47
2019-02-16T03:59:04.321Z,8.47
2019-02-16T04:01:34.592Z,8.20
2019-02-16T04:04:04.865Z,8.97
2019-02-16T04:06:35.060Z,8.90
2019-02-16T04:09:06.177Z,8.33
2019-02-16T04:11:36.477Z,7.77
2019-02-16T04:14:06.733Z,7.87
2019-02-16T04:16:37.041Z,7.97
2019-02-16T04:19:07.312Z,7.40
2019-02-16T04:21:37.516Z,6.37
2019-02-16T04:24:07.700Z,7.20
2019-02-16T04:26:37.989Z,7.10
2019-02-16T04:29:08.236Z,6.17
2019-02-16T04:31:38.462Z,6.50
2019-02-16T04:34:08.675Z,6.43
2019-02-16T04:36:38.851Z,6.60
2019-02-16T04:39:09.135Z,6.80
2019-02-16T04:41:39.395Z,7.23
2019-02-16T04:44:09.688Z,7.63
2019-02-16T04:46:39.993Z,7.20
2019-02-16T04:49:10.262Z,7.07
2019-02-16T04:51:40.561Z,6.70
2019-02-16T04:54:10.819Z,7.50
2019-02-16T04:56:41.109Z,8.60
2019-02-16T04:59:11.381Z,8.70
2019-02-16T05:01:41.653Z,8.90
2019-02-16T05:04:11.946Z,8.80
2019-02-16T05:06:42.239Z,8.10
2019-02-16T05:09:12.505Z,8.50
2019-02-16T05:11:42.725Z,8.30
2019-02-16T05:14:13.022Z,8.00
2019-02-16T05:16:43.277Z,8.00
2019-02-16T05:19:13.466Z,7.70
2019-02-16T05:21:43.694Z,8.47
2019-02-16T05:24:13.860Z,7.90
2019-02-16T05:26:44.168Z,9.00
2019-02-16T05:29:14.459Z,8.27
2019-02-16T05:31:44.691Z,8.97
2019-02-16T05:34:14.909Z,7.20
2019-02-16T05:36:45.120Z,7.57
2019-02-16T05:39:15.445Z,8.27
2019-02-16T05:41:45.653Z,7.50
2019-02-16T05:44:15.914Z,7.83
2019-02-16T05:46:46.156Z,8.00
2019-02-16T05:49:16.353Z,7.93
2019-02-16T05:51:46.569Z,8.00
2019-02-16T05:54:16.760Z,9.70
2019-02-16T05:56:47.061Z,8.83
2019-02-16T05:59:17.327Z,7.30
2019-02-16T06:01:53.768Z,7.33
2019-02-16T06:04:19.579Z,6.83
2019-02-16T06:06:49.837Z,7.47
2019-02-16T06:09:20.001Z,6.63
2019-02-16T06:11:50.307Z,7.00
2019-02-16T06:14:20.548Z,7.37
2019-02-16T06:16:50.860Z,7.27
2019-02-16T06:19:21.124Z,7.37
2019-02-16T06:21:51.385Z,7.70
2019-02-16T06:24:21.600Z,7.23
2019-02-16T06:26:51.895Z,6.67
2019-02-16T06:29:22.168Z,6.60
2019-02-16T06:31:52.397Z,8.20
2019-02-16T06:34:22.677Z,8.30
2019-02-16T06:36:53.024Z,9.43
2019-02-16T06:39:23.258Z,8.20
2019-02-16T06:41:53.558Z,7.40
2019-02-16T06:44:23.772Z,7.43
2019-02-16T06:46:54.059Z,6.50
2019-02-16T06:49:24.364Z,6.33
2019-02-16T06:51:54.665Z,6.60
2019-02-16T06:54:24.944Z,7.10
2019-02-16T06:57:14.350Z,7.83
2019-02-16T06:59:44.664Z,7.33
2019-02-16T07:02:14.972Z,9.03
2019-02-16T07:04:45.279Z,8.60
2019-02-16T07:07:15.486Z,7.33
2019-02-16T07:09:45.703Z,7.77
2019-02-16T07:12:15.889Z,7.30
2019-02-16T07:14:46.217Z,8.10
2019-02-16T07:17:41.425Z,7.77
2019-02-16T07:20:11.841Z,9.03
2019-02-16T07:22:42.150Z,8.67
2019-02-16T07:25:12.374Z,8.20
2019-02-16T07:27:42.640Z,7.50
2019-02-16T07:30:12.841Z,8.30
2019-02-16T07:32:43.304Z,8.13
2019-02-16T07:35:13.639Z,8.00
2019-02-16T07:37:43.917Z,7.37
2019-02-16T07:40:14.216Z,7.40
2019-02-16T07:43:02.626Z,7.77
2019-02-16T07:45:49.217Z,7.57
2019-02-16T07:48:24.508Z,8.27
2019-02-16T07:51:16.164Z,7.13
2019-02-16T07:54:08.685Z,7.13
2019-02-16T07:56:52.653Z,7.87
2019-02-16T07:59:40.609Z,7.33
2019-02-16T08:02:33.831Z,7.50
2019-02-16T08:05:27.245Z,7.47
2019-02-16T08:08:14.741Z,7.67
2019-02-16T08:11:08.099Z,7.80
2019-02-16T08:13:50.597Z,8.37
2019-02-16T08:16:38.534Z,7.80
2019-02-16T08:19:27.773Z,8.10
2019-02-16T08:22:19.852Z,7.57
2019-02-16T08:25:09.082Z,7.33
2019-02-16T08:27:45.286Z,7.07
2019-02-16T08:30:52.536Z,7.20
2019-02-16T08:33:37.406Z,7.87
2019-02-16T08:36:17.631Z,7.73
2019-02-16T08:39:06.412Z,7.77
2019-02-16T08:41:55.726Z,8.47
2019-02-16T08:44:49.879Z,8.17
2019-02-16T08:47:37.540Z,8.50
2019-02-16T08:50:26.742Z,11.17
2019-02-16T08:53:19.146Z,8.90
2019-02-16T08:56:06.817Z,9.27
2019-02-16T08:58:58.208Z,8.70
2019-02-16T09:02:02.399Z,9.13
2019-02-16T09:04:50.201Z,8.63
2019-02-16T09:07:26.587Z,8.33
2019-02-16T09:10:21.635Z,9.83
2019-02-16T09:12:59.518Z,9.33
2019-02-16T09:15:53.791Z,8.90
2019-02-16T09:18:39.512Z,9.97
2019-02-16T09:21:28.763Z,8.93
2019-02-16T09:24:06.889Z,9.93
2019-02-16T09:27:02.193Z,9.37
2019-02-16T09:29:44.709Z,8.57
2019-02-16T09:32:27.810Z,8.63
2019-02-16T09:35:17.072Z,9.53
2019-02-16T09:38:09.133Z,10.27
2019-02-16T09:40:56.289Z,9.20
2019-02-16T09:43:42.274Z,10.57
2019-02-16T09:46:19.776Z,10.33
2019-02-16T09:49:05.391Z,13.13
2019-02-16T09:52:06.480Z,12.33
2019-02-16T09:54:54.473Z,10.90
2019-02-16T09:57:37.052Z,11.27
2019-02-16T10:00:25.022Z,10.70
2019-02-16T10:03:32.524Z,9.93
2019-02-16T10:06:17.316Z,9.60
2019-02-16T10:09:01.305Z,9.83
2019-02-16T10:11:57.445Z,10.07
2019-02-16T10:14:45.530Z,9.83
2019-02-16T10:17:20.952Z,10.10
2019-02-16T10:20:14.084Z,10.50
2019-02-16T10:22:53.670Z,9.77
2019-02-16T10:25:42.931Z,8.87
2019-02-16T10:28:24.661Z,9.83
2019-02-16T10:31:13.269Z,10.57
2019-02-16T10:34:05.595Z,10.03
2019-02-16T10:37:00.685Z,10.07
2019-02-16T10:39:41.973Z,9.63
2019-02-16T10:42:29.937Z,10.07
2019-02-16T10:45:19.391Z,9.03
2019-02-16T10:48:04.854Z,9.70
2019-02-16T10:50:49.506Z,9.40
2019-02-16T10:53:36.901Z,9.50
2019-02-16T10:56:16.913Z,9.73
2019-02-16T10:58:54.260Z,9.47
2019-02-16T11:01:46.526Z,9.70
2019-02-16T11:04:54.011Z,9.23
2019-02-16T11:07:32.234Z,9.40
2019-02-16T11:10:29.336Z,9.53
2019-02-16T11:13:30.867Z,8.93
2019-02-16T11:16:18.523Z,8.43
2019-02-16T11:19:00.050Z,10.60
2019-02-16T11:21:53.940Z,9.20
2019-02-16T11:24:42.108Z,11.93
2019-02-16T11:27:22.255Z,10.33
2019-02-16T11:30:11.527Z,10.47
2019-02-16T11:32:51.829Z,9.30
2019-02-16T11:35:47.276Z,9.90
2019-02-16T11:38:29.984Z,9.67
2019-02-16T11:41:28.269Z,9.23
2019-02-16T11:44:17.913Z,10.17
2019-02-16T11:47:22.105Z,10.17
2019-02-16T11:50:08.222Z,10.17
2019-02-16T11:53:00.531Z,9.70
2019-02-16T11:55:39.762Z,9.97
2019-02-16T11:58:28.217Z,9.83
2019-02-16T12:01:26.545Z,9.30
2019-02-16T12:04:17.293Z,11.80
2019-02-16T12:07:09.635Z,9.87
2019-02-16T12:09:56.203Z,9.73
2019-02-16T12:12:45.443Z,9.93
2019-02-16T12:15:37.707Z,10.20
2019-02-16T12:18:22.461Z,9.70
2019-02-16T12:21:18.363Z,9.70
2019-02-16T12:24:06.008Z,10.93
2019-02-16T12:27:01.313Z,10.80
2019-02-16T12:30:02.813Z,10.30
2019-02-16T12:32:39.440Z,10.13
2019-02-16T12:35:28.733Z,9.83
2019-02-16T12:38:17.975Z,11.03
2019-02-16T12:41:13.401Z,10.30
2019-02-16T12:44:01.089Z,10.33
2019-02-16T12:46:50.343Z,11.10
2019-02-16T12:49:51.785Z,10.20
2019-02-16T12:52:43.840Z,9.57
2019-02-16T12:55:44.931Z,11.03
2019-02-16T12:58:24.355Z,9.40
2019-02-16T13:01:10.391Z,9.60
2019-02-16T13:03:51.033Z,9.37
2019-02-16T13:06:37.690Z,9.40
2019-02-16T13:09:27.523Z,9.90
2019-02-16T13:12:19.960Z,8.17
2019-02-16T13:14:58.069Z,8.40
2019-02-16T13:17:37.500Z,8.23
2019-02-16T13:20:25.780Z,7.97
2019-02-16T13:23:21.200Z,8.00
2019-02-16T13:26:02.467Z,7.90
2019-02-16T13:28:52.865Z,7.10
2019-02-16T13:31:32.899Z,6.53
2019-02-16T13:34:37.374Z,7.07
2019-02-16T13:37:38.772Z,6.67
2019-02-16T13:40:28.848Z,7.00
2019-02-16T13:43:16.888Z,7.53
2019-02-16T13:45:59.501Z,7.40
2019-02-16T13:48:34.172Z,7.30
2019-02-16T13:51:26.597Z,7.20
2019-02-16T13:54:09.582Z,6.87
2019-02-16T13:56:53.582Z,6.70
2019-02-16T13:59:30.118Z,6.83
2019-02-16T14:02:22.442Z,7.23
2019-02-16T14:05:06.512Z,8.17
2019-02-16T14:07:54.201Z,7.93
2019-02-16T14:10:39.563Z,8.10
2019-02-16T14:13:28.841Z,7.83
2019-02-16T14:16:04.001Z,7.40
2019-02-16T14:18:34.306Z,6.43
2019-02-16T14:21:04.517Z,6.73
2019-02-16T14:23:34.720Z,7.33
2019-02-16T14:26:05.006Z,7.17
2019-02-16T14:28:35.268Z,6.40
2019-02-16T14:31:05.577Z,5.90
2019-02-16T14:33:35.807Z,6.53
2019-02-16T14:36:06.005Z,6.33
2019-02-16T14:38:41.770Z,5.77
2019-02-16T14:41:12.014Z,6.40
2019-02-16T14:43:42.273Z,7.20
2019-02-16T14:46:12.576Z,7.80
2019-02-16T14:48:42.868Z,7.13
2019-02-16T14:51:13.175Z,7.33
2019-02-16T14:53:43.494Z,6.47
2019-02-16T14:56:13.842Z,6.80
2019-02-16T14:58:44.108Z,8.00
2019-02-16T15:01:14.452Z,8.20
2019-02-16T15:03:44.765Z,8.20
2019-02-16T15:06:15.076Z,8.70
2019-02-16T15:08:45.503Z,8.63
2019-02-16T15:11:15.782Z,8.57
2019-02-16T15:13:46.025Z,8.40
2019-02-16T15:16:16.381Z,7.90
2019-02-16T15:18:46.608Z,8.73
2019-02-16T15:21:16.854Z,10.13
2019-02-16T15:23:47.049Z,9.20
2019-02-16T15:26:17.322Z,9.60
2019-02-16T15:28:47.675Z,10.37
2019-02-16T15:31:17.964Z,10.77
2019-02-16T15:33:48.316Z,10.00
2019-02-16T15:36:23.938Z,9.30
2019-02-16T15:38:50.574Z,9.23
2019-02-16T15:41:20.868Z,9.60
2019-02-16T15:43:51.150Z,8.07
2019-02-16T15:46:21.367Z,10.23
2019-02-16T15:48:51.667Z,10.80
2019-02-16T15:51:21.958Z,12.43
2019-02-16T15:53:52.313Z,11.23
2019-02-16T15:56:22.591Z,14.30
2019-02-16T15:58:52.830Z,12.70
2019-02-16T16:01:23.196Z,11.20
2019-02-16T16:03:53.527Z,10.43
2019-02-16T16:06:23.748Z,10.50
2019-02-16T16:09:05.786Z,9.80
2019-02-16T16:12:03.882Z,9.10
2019-02-16T16:14:59.045Z,8.90
2019-02-16T16:18:06.472Z,12.43
2019-02-16T16:21:07.709Z,12.20
2019-02-16T16:23:59.582Z,10.97
2019-02-16T16:26:45.908Z,10.33
2019-02-16T16:29:33.802Z,9.77
2019-02-16T16:32:26.081Z,8.83
2019-02-16T16:35:18.343Z,8.27
2019-02-16T16:38:05.640Z,8.40
2019-02-16T16:40:50.336Z,8.10
2019-02-16T16:43:31.684Z,8.83
2019-02-16T16:46:11.432Z,8.77
2019-02-16T16:49:00.331Z,8.23
2019-02-16T16:51:40.021Z,7.93
2019-02-16T16:54:35.214Z,8.00
2019-02-16T16:57:33.273Z,8.17
2019-02-16T17:00:20.913Z,8.03
2019-02-16T17:03:12.913Z,8.07
2019-02-16T17:06:01.004Z,7.83
2019-02-16T17:08:43.757Z,7.30
2019-02-16T17:11:39.108Z,8.20
2019-02-16T17:14:37.275Z,7.47
2019-02-16T17:17:14.137Z,7.47
2019-02-16T17:20:13.390Z,7.60
2019-02-16T17:22:50.505Z,8.07
2019-02-16T17:25:28.238Z,8.30
2019-02-16T17:28:23.401Z,9.03
2019-02-16T17:31:30.907Z,9.17
2019-02-16T17:34:11.283Z,8.77
2019-02-16T17:36:55.004Z,9.10
2019-02-16T17:39:38.133Z,7.70
2019-02-16T17:42:27.406Z,8.47
2019-02-16T17:45:15.401Z,7.80
2019-02-16T17:48:03.263Z,8.63
2019-02-16T17:50:58.520Z,9.03
2019-02-16T17:53:41.095Z,9.00
2019-02-16T17:56:25.510Z,9.03
2019-02-16T17:59:04.436Z,8.53
2019-02-16T18:01:54.333Z,9.03
2019-02-16T18:04:46.343Z,9.03
2019-02-16T18:07:34.367Z,8.63
2019-02-16T18:10:26.545Z,7.90
2019-02-16T18:13:18.617Z,8.10
2019-02-16T18:16:03.953Z,9.27
2019-02-16T18:18:53.523Z,10.03
2019-02-16T18:21:40.725Z,9.77
2019-02-16T18:24:24.108Z,9.97
2019-02-16T18:27:11.845Z,10.93
2019-02-16T18:29:59.668Z,10.63
2019-02-16T18:32:58.081Z,8.97
2019-02-16T18:35:52.704Z,10.90
2019-02-16T18:38:36.519Z,10.77
2019-02-16T18:41:28.802Z,9.83
2019-02-16T18:44:15.689Z,9.90
2019-02-16T18:47:04.962Z,10.57
2019-02-16T18:49:44.904Z,9.90
2019-02-16T18:52:33.429Z,10.27
2019-02-16T18:55:21.408Z,9.93
2019-02-16T18:58:08.284Z,10.00
2019-02-16T19:00:54.463Z,10.27
2019-02-16T19:03:58.649Z,9.80
2019-02-16T19:06:38.868Z,9.00
2019-02-16T19:09:26.474Z,8.93
2019-02-16T19:12:18.841Z,9.80
2019-02-16T19:15:20.032Z,9.20
2019-02-16T19:17:56.855Z,8.43
2019-02-16T19:20:36.048Z,8.17
2019-02-16T19:23:25.305Z,9.90
2019-02-16T19:26:14.931Z,11.13
2019-02-16T19:29:02.631Z,12.77
2019-02-16T19:31:50.500Z,14.00
2019-02-16T19:34:39.738Z,12.90
2019-02-16T19:37:31.894Z,11.33
2019-02-16T19:40:30.025Z,13.23
2019-02-16T19:43:19.310Z,11.27
2019-02-16T19:46:11.346Z,11.93
2019-02-16T19:49:00.359Z,12.07
2019-02-16T19:51:48.370Z,11.87
2019-02-16T19:54:38.421Z,10.73
2019-02-16T19:57:27.715Z,10.53
2019-02-16T20:00:11.944Z,12.43
2019-02-16T20:03:01.360Z,11.43
2019-02-16T20:05:55.980Z,10.33
2019-02-16T20:08:40.737Z,11.23
2019-02-16T20:11:18.253Z,10.83
2019-02-16T20:14:07.529Z,10.27
2019-02-16T20:16:43.471Z,10.43
2019-02-16T20:19:32.831Z,11.27
2019-02-16T20:22:31.080Z,13.50
2019-02-16T20:25:23.405Z,11.60
2019-02-16T20:28:15.408Z,11.40
2019-02-16T20:30:51.935Z,12.13
2019-02-16T20:33:50.352Z,12.00
2019-02-16T20:36:39.619Z,11.13
2019-02-16T20:39:41.039Z,11.03
2019-02-16T20:42:27.270Z,11.70
2019-02-16T20:45:06.467Z,11.30
2019-02-16T20:47:45.642Z,10.87
2019-02-16T20:50:34.939Z,10.60
2019-02-16T20:53:24.261Z,10.50
2019-02-16T20:56:16.004Z,10.20
2019-02-16T20:58:53.503Z,10.20
2019-02-16T21:01:37.756Z,10.57
2019-02-16T21:04:25.702Z,10.53
2019-02-16T21:07:13.638Z,11.90
2019-02-16T21:09:58.829Z,11.97
2019-02-16T21:12:54.213Z,11.30
2019-02-16T21:16:01.670Z,12.47
2019-02-16T21:18:59.528Z,12.83
2019-02-16T21:21:53.348Z,12.70
2019-02-16T21:24:41.269Z,12.33
2019-02-16T21:27:18.135Z,12.40
2019-02-16T21:30:03.910Z,12.60
2019-02-16T21:33:11.223Z,11.90
2019-02-16T21:36:06.340Z,12.50
2019-02-16T21:39:10.819Z,11.73
2019-02-16T21:42:05.941Z,12.00
2019-02-16T21:44:57.640Z,12.33
2019-02-16T21:47:41.712Z,11.63
2019-02-16T21:50:20.208Z,12.83
2019-02-16T21:53:08.290Z,12.03
2019-02-16T21:55:55.917Z,12.07
2019-02-16T21:58:45.250Z,11.77
2019-02-16T22:01:29.339Z,11.20
2019-02-16T22:04:20.185Z,11.97
2019-02-16T22:07:08.060Z,12.73
2019-02-16T22:10:03.348Z,12.23
2019-02-16T22:12:58.457Z,12.63
2019-02-16T22:15:28.814Z,14.77
2019-02-16T22:17:59.107Z,14.27
2019-02-16T22:20:29.498Z,15.60
2019-02-16T22:23:02.551Z,14.10
2019-02-16T22:25:32.837Z,14.47
2019-02-16T22:28:03.248Z,13.47
2019-02-16T22:30:33.580Z,14.10
2019-02-16T22:33:03.954Z,13.23
2019-02-16T22:35:38.234Z,13.10
2019-02-16T22:38:08.446Z,12.43
2019-02-16T22:40:38.876Z,11.60
2019-02-16T22:43:09.094Z,11.73
2019-02-16T22:45:39.457Z,12.63
2019-02-16T22:48:09.784Z,11.90
2019-02-16T22:50:40.090Z,12.93
2019-02-16T22:53:10.389Z,12.60
2019-02-16T22:55:40.777Z,12.20
2019-02-16T22:58:11.145Z,12.00
2019-02-16T23:00:46.897Z,12.30
2019-02-16T23:03:17.444Z,13.20
2019-02-16T23:05:47.712Z,13.27
2019-02-16T23:08:18.048Z,13.57
2019-02-16T23:10:48.345Z,13.77
2019-02-16T23:13:18.677Z,13.57
2019-02-16T23:15:49.000Z,12.57
2019-02-16T23:18:19.700Z,13.50
2019-02-16T23:20:50.121Z,13.37
2019-02-16T23:23:20.373Z,12.03
2019-02-16T23:25:50.579Z,11.53
2019-02-16T23:28:20.902Z,11.47
2019-02-16T23:30:51.194Z,12.50
2019-02-16T23:33:21.439Z,12.47
2019-02-16T23:35:51.730Z,12.00
2019-02-16T23:38:22.057Z,12.47
2019-02-16T23:40:52.346Z,11.37
2019-02-16T23:43:22.625Z,12.60
2019-02-16T23:45:52.922Z,11.63
2019-02-16T23:48:23.133Z,11.93
2019-02-16T23:50:53.388Z,13.90
2019-02-16T23:53:23.684Z,12.27
2019-02-16T23:55:53.983Z,12.17
2019-02-16T23:58:24.244Z,13.00
